KPMH/PMH METAR and TAF weather

Enter ICAO airport designator
Station Type Date Time Source
KPMH METAR 2021/07/26 15:55 UTC NOAA

KPMH 261555Z AUTO 07003KT 10SM CLR 29/22 A3001 RMK AO2 T02910224


Station Type Date Time Source
KPMH Decoded METAR 2021/07/26 15:55 UTC NOAA

Station name not available
Jul 26, 2021 - 11:55 AM EDT / 2021.07.26 1555 UTC
Wind: from the ENE (070 degrees) at 3 MPH (3 KT):0
Visibility: 10 mile(s):0
Sky conditions: clear
Temperature: 84.4 F (29.1 C)
Dew Point: 72.3 F (22.4 C)
Relative Humidity: 67%
Pressure (altimeter): 30.01 in. Hg (1016 hPa)
ob: KPMH 261555Z AUTO 07003KT 10SM CLR 29/22 A3001 RMK AO2 T02910224
cycle: 16

Station Type Date Time Source
KPMH TAF UTC NOAA

Error!

Example: see airport list